sensor_id;sensor_type;location;lat;lon;timestamp;temperature;humidity
72883;DHT22;61017;37.812;-122.286;2023-06-14T00:00:11;16.80;97.10
72883;DHT22;61017;37.812;-122.286;2023-06-14T00:01:43;16.80;97.10
72883;DHT22;61017;37.812;-122.286;2023-06-14T00:03:14;16.80;97.00
72883;DHT22;61017;37.812;-122.286;2023-06-14T00:04:46;16.80;97.10
72883;DHT22;61017;37.812;-122.286;2023-06-14T00:06:18;16.80;97.10
72883;DHT22;61017;37.812;-122.286;2023-06-14T00:07:49;16.80;97.10
72883;DHT22;61017;37.812;-122.286;2023-06-14T00:09:21;16.80;97.10
72883;DHT22;61017;37.812;-122.286;2023-06-14T00:10:53;16.80;97.10
72883;DHT22;61017;37.812;-122.286;2023-06-14T00:12:24;16.80;97.10
72883;DHT22;61017;37.812;-122.286;2023-06-14T00:13:56;16.80;97.10
72883;DHT22;61017;37.812;-122.286;2023-06-14T00:15:57;16.80;97.10
72883;DHT22;61017;37.812;-122.286;2023-06-14T00:17:37;16.80;97.50
72883;DHT22;61017;37.812;-122.286;2023-06-14T00:19:18;16.80;97.10
72883;DHT22;61017;37.812;-122.286;2023-06-14T00:20:55;16.80;97.10
72883;DHT22;61017;37.812;-122.286;2023-06-14T00:22:27;16.80;97.10
72883;DHT22;61017;37.812;-122.286;2023-06-14T00:23:59;16.80;97.10
72883;DHT22;61017;37.812;-122.286;2023-06-14T00:25:42;16.80;97.10
72883;DHT22;61017;37.812;-122.286;2023-06-14T00:27:14;16.80;97.10
72883;DHT22;61017;37.812;-122.286;2023-06-14T00:28:49;16.80;97.10
72883;DHT22;61017;37.812;-122.286;2023-06-14T00:30:21;16.80;97.10
72883;DHT22;61017;37.812;-122.286;2023-06-14T00:31:53;16.80;97.10
72883;DHT22;61017;37.812;-122.286;2023-06-14T00:33:24;16.80;97.10
72883;DHT22;61017;37.812;-122.286;2023-06-14T00:34:56;16.80;97.10
72883;DHT22;61017;37.812;-122.286;2023-06-14T00:36:28;16.80;97.10
72883;DHT22;61017;37.812;-122.286;2023-06-14T00:37:59;16.80;97.10
72883;DHT22;61017;37.812;-122.286;2023-06-14T00:39:31;16.80;97.10
72883;DHT22;61017;37.812;-122.286;2023-06-14T00:41:03;16.80;97.20
72883;DHT22;61017;37.812;-122.286;2023-06-14T00:42:35;16.80;97.20
72883;DHT22;61017;37.812;-122.286;2023-06-14T00:44:06;16.80;97.20
72883;DHT22;61017;37.812;-122.286;2023-06-14T00:45:41;16.80;97.20
72883;DHT22;61017;37.812;-122.286;2023-06-14T00:47:13;16.80;97.20
72883;DHT22;61017;37.812;-122.286;2023-06-14T00:48:45;16.80;97.20
72883;DHT22;61017;37.812;-122.286;2023-06-14T00:50:20;16.80;97.20
72883;DHT22;61017;37.812;-122.286;2023-06-14T00:51:52;16.80;97.20
72883;DHT22;61017;37.812;-122.286;2023-06-14T00:53:24;16.80;97.20
72883;DHT22;61017;37.812;-122.286;2023-06-14T00:54:55;16.80;97.20
72883;DHT22;61017;37.812;-122.286;2023-06-14T00:56:27;16.80;97.20
72883;DHT22;61017;37.812;-122.286;2023-06-14T00:57:59;16.80;97.20
72883;DHT22;61017;37.812;-122.286;2023-06-14T00:59:31;16.80;97.20
72883;DHT22;61017;37.812;-122.286;2023-06-14T01:01:03;16.80;97.20
72883;DHT22;61017;37.812;-122.286;2023-06-14T01:02:39;16.80;97.20
72883;DHT22;61017;37.812;-122.286;2023-06-14T01:04:10;16.80;97.20
72883;DHT22;61017;37.812;-122.286;2023-06-14T01:05:45;16.80;97.20
72883;DHT22;61017;37.812;-122.286;2023-06-14T01:09:19;16.80;97.20
72883;DHT22;61017;37.812;-122.286;2023-06-14T01:11:05;16.80;97.20
72883;DHT22;61017;37.812;-122.286;2023-06-14T01:13:12;16.80;97.20
72883;DHT22;61017;37.812;-122.286;2023-06-14T01:14:42;16.80;97.30
72883;DHT22;61017;37.812;-122.286;2023-06-14T01:16:15;16.80;97.20
72883;DHT22;61017;37.812;-122.286;2023-06-14T01:17:49;16.80;97.20
72883;DHT22;61017;37.812;-122.286;2023-06-14T01:19:22;16.80;97.20
72883;DHT22;61017;37.812;-122.286;2023-06-14T01:20:57;16.80;97.30
72883;DHT22;61017;37.812;-122.286;2023-06-14T01:22:29;16.80;97.30
72883;DHT22;61017;37.812;-122.286;2023-06-14T01:24:04;16.80;97.30
72883;DHT22;61017;37.812;-122.286;2023-06-14T01:25:35;16.80;97.30
72883;DHT22;61017;37.812;-122.286;2023-06-14T01:27:08;16.80;97.30
72883;DHT22;61017;37.812;-122.286;2023-06-14T01:28:39;16.80;97.30
72883;DHT22;61017;37.812;-122.286;2023-06-14T01:30:12;16.80;97.30
72883;DHT22;61017;37.812;-122.286;2023-06-14T01:31:44;16.80;97.30
72883;DHT22;61017;37.812;-122.286;2023-06-14T01:33:21;16.80;97.30
72883;DHT22;61017;37.812;-122.286;2023-06-14T01:34:53;16.80;97.30
72883;DHT22;61017;37.812;-122.286;2023-06-14T01:36:26;16.80;97.30
72883;DHT22;61017;37.812;-122.286;2023-06-14T01:37:59;16.80;97.30
72883;DHT22;61017;37.812;-122.286;2023-06-14T01:40:15;16.80;97.30
72883;DHT22;61017;37.812;-122.286;2023-06-14T01:41:46;16.80;97.30
72883;DHT22;61017;37.812;-122.286;2023-06-14T01:43:19;16.80;97.30
72883;DHT22;61017;37.812;-122.286;2023-06-14T01:44:52;16.80;97.30
72883;DHT22;61017;37.812;-122.286;2023-06-14T01:46:25;16.80;97.30
72883;DHT22;61017;37.812;-122.286;2023-06-14T01:47:57;16.80;97.30
72883;DHT22;61017;37.812;-122.286;2023-06-14T01:49:39;16.80;97.30
72883;DHT22;61017;37.812;-122.286;2023-06-14T01:51:10;16.80;97.30
72883;DHT22;61017;37.812;-122.286;2023-06-14T01:52:42;16.80;97.30
72883;DHT22;61017;37.812;-122.286;2023-06-14T01:54:14;16.80;97.30
72883;DHT22;61017;37.812;-122.286;2023-06-14T01:55:46;16.80;97.30
72883;DHT22;61017;37.812;-122.286;2023-06-14T01:57:22;16.90;97.30
72883;DHT22;61017;37.812;-122.286;2023-06-14T01:58:56;16.80;97.30
72883;DHT22;61017;37.812;-122.286;2023-06-14T02:00:28;16.80;97.30
72883;DHT22;61017;37.812;-122.286;2023-06-14T02:02:01;16.80;97.30
72883;DHT22;61017;37.812;-122.286;2023-06-14T02:03:32;16.80;97.30
72883;DHT22;61017;37.812;-122.286;2023-06-14T02:05:04;16.80;97.30
72883;DHT22;61017;37.812;-122.286;2023-06-14T02:06:36;16.80;97.30
72883;DHT22;61017;37.812;-122.286;2023-06-14T02:08:07;16.80;97.30
72883;DHT22;61017;37.812;-122.286;2023-06-14T02:09:40;16.80;97.30
72883;DHT22;61017;37.812;-122.286;2023-06-14T02:11:12;16.80;97.30
72883;DHT22;61017;37.812;-122.286;2023-06-14T02:12:44;16.80;97.30
72883;DHT22;61017;37.812;-122.286;2023-06-14T02:14:16;16.80;97.30
72883;DHT22;61017;37.812;-122.286;2023-06-14T02:15:48;16.80;97.30
72883;DHT22;61017;37.812;-122.286;2023-06-14T02:17:20;16.80;97.30
72883;DHT22;61017;37.812;-122.286;2023-06-14T02:18:52;16.80;97.30
72883;DHT22;61017;37.812;-122.286;2023-06-14T02:20:24;16.80;97.20
72883;DHT22;61017;37.812;-122.286;2023-06-14T02:21:57;16.80;97.20
72883;DHT22;61017;37.812;-122.286;2023-06-14T02:23:29;16.80;97.20
72883;DHT22;61017;37.812;-122.286;2023-06-14T02:25:01;16.80;97.20
72883;DHT22;61017;37.812;-122.286;2023-06-14T02:26:32;16.80;97.20
72883;DHT22;61017;37.812;-122.286;2023-06-14T02:28:04;16.80;97.20
72883;DHT22;61017;37.812;-122.286;2023-06-14T02:29:36;16.80;97.20
72883;DHT22;61017;37.812;-122.286;2023-06-14T02:31:08;16.80;97.20
72883;DHT22;61017;37.812;-122.286;2023-06-14T02:32:40;16.80;97.20
72883;DHT22;61017;37.812;-122.286;2023-06-14T02:34:11;16.80;97.20
72883;DHT22;61017;37.812;-122.286;2023-06-14T02:35:43;16.80;97.20
72883;DHT22;61017;37.812;-122.286;2023-06-14T02:37:15;16.80;97.20
72883;DHT22;61017;37.812;-122.286;2023-06-14T02:38:47;16.80;97.20
72883;DHT22;61017;37.812;-122.286;2023-06-14T02:40:22;16.80;97.20
72883;DHT22;61017;37.812;-122.286;2023-06-14T02:41:53;16.80;97.20
72883;DHT22;61017;37.812;-122.286;2023-06-14T02:43:25;16.80;97.20
72883;DHT22;61017;37.812;-122.286;2023-06-14T02:44:57;16.80;97.20
72883;DHT22;61017;37.812;-122.286;2023-06-14T02:46:31;16.80;97.20
72883;DHT22;61017;37.812;-122.286;2023-06-14T02:48:03;16.80;97.20
72883;DHT22;61017;37.812;-122.286;2023-06-14T02:49:35;16.80;97.20
72883;DHT22;61017;37.812;-122.286;2023-06-14T02:51:07;16.80;97.20
72883;DHT22;61017;37.812;-122.286;2023-06-14T02:52:38;16.80;97.20
72883;DHT22;61017;37.812;-122.286;2023-06-14T02:54:10;16.80;97.20
72883;DHT22;61017;37.812;-122.286;2023-06-14T02:55:41;16.80;97.20
72883;DHT22;61017;37.812;-122.286;2023-06-14T02:57:13;16.80;97.20
72883;DHT22;61017;37.812;-122.286;2023-06-14T02:58:45;16.80;97.20
72883;DHT22;61017;37.812;-122.286;2023-06-14T03:00:17;16.80;97.20
72883;DHT22;61017;37.812;-122.286;2023-06-14T03:01:50;16.80;97.20
72883;DHT22;61017;37.812;-122.286;2023-06-14T03:03:21;16.80;97.20
72883;DHT22;61017;37.812;-122.286;2023-06-14T03:04:52;16.80;97.20
72883;DHT22;61017;37.812;-122.286;2023-06-14T03:06:24;16.80;97.20
72883;DHT22;61017;37.812;-122.286;2023-06-14T03:07:56;16.80;97.20
72883;DHT22;61017;37.812;-122.286;2023-06-14T03:09:30;16.80;97.40
72883;DHT22;61017;37.812;-122.286;2023-06-14T03:11:02;16.80;97.20
72883;DHT22;61017;37.812;-122.286;2023-06-14T03:12:33;16.80;97.20
72883;DHT22;61017;37.812;-122.286;2023-06-14T03:14:05;16.80;97.20
72883;DHT22;61017;37.812;-122.286;2023-06-14T03:15:36;16.80;97.20
72883;DHT22;61017;37.812;-122.286;2023-06-14T03:17:08;16.80;97.20
72883;DHT22;61017;37.812;-122.286;2023-06-14T03:18:40;16.80;97.20
72883;DHT22;61017;37.812;-122.286;2023-06-14T03:20:11;16.80;97.20
72883;DHT22;61017;37.812;-122.286;2023-06-14T03:21:43;16.80;97.20
72883;DHT22;61017;37.812;-122.286;2023-06-14T03:23:15;16.80;97.20
72883;DHT22;61017;37.812;-122.286;2023-06-14T03:24:46;16.80;97.20
72883;DHT22;61017;37.812;-122.286;2023-06-14T03:26:18;16.80;97.20
72883;DHT22;61017;37.812;-122.286;2023-06-14T03:27:49;16.80;97.20
72883;DHT22;61017;37.812;-122.286;2023-06-14T03:29:22;16.80;97.10
72883;DHT22;61017;37.812;-122.286;2023-06-14T03:30:54;16.80;97.10
72883;DHT22;61017;37.812;-122.286;2023-06-14T03:32:30;16.80;97.20
72883;DHT22;61017;37.812;-122.286;2023-06-14T03:34:04;16.80;97.10
72883;DHT22;61017;37.812;-122.286;2023-06-14T03:35:36;16.80;97.20
72883;DHT22;61017;37.812;-122.286;2023-06-14T03:37:07;16.80;97.20
72883;DHT22;61017;37.812;-122.286;2023-06-14T03:38:39;16.80;97.10
72883;DHT22;61017;37.812;-122.286;2023-06-14T03:40:12;16.80;97.20
72883;DHT22;61017;37.812;-122.286;2023-06-14T03:41:43;16.80;97.20
72883;DHT22;61017;37.812;-122.286;2023-06-14T03:43:15;16.80;97.10
72883;DHT22;61017;37.812;-122.286;2023-06-14T03:44:46;16.80;97.10
72883;DHT22;61017;37.812;-122.286;2023-06-14T03:46:18;16.80;97.20
72883;DHT22;61017;37.812;-122.286;2023-06-14T03:47:50;16.80;97.10
72883;DHT22;61017;37.812;-122.286;2023-06-14T03:49:21;16.80;97.10
72883;DHT22;61017;37.812;-122.286;2023-06-14T03:50:53;16.80;97.10
72883;DHT22;61017;37.812;-122.286;2023-06-14T03:52:27;16.80;97.10
72883;DHT22;61017;37.812;-122.286;2023-06-14T03:53:59;16.80;97.10
72883;DHT22;61017;37.812;-122.286;2023-06-14T03:55:36;16.80;97.10
72883;DHT22;61017;37.812;-122.286;2023-06-14T03:57:08;16.80;97.10
72883;DHT22;61017;37.812;-122.286;2023-06-14T03:58:39;16.80;97.10
72883;DHT22;61017;37.812;-122.286;2023-06-14T04:00:11;16.80;97.10
72883;DHT22;61017;37.812;-122.286;2023-06-14T04:01:43;16.80;97.10
72883;DHT22;61017;37.812;-122.286;2023-06-14T04:03:15;16.80;97.30
72883;DHT22;61017;37.812;-122.286;2023-06-14T04:04:47;16.80;97.10
72883;DHT22;61017;37.812;-122.286;2023-06-14T04:06:18;16.80;97.10
72883;DHT22;61017;37.812;-122.286;2023-06-14T04:07:50;16.80;97.10
72883;DHT22;61017;37.812;-122.286;2023-06-14T04:09:22;16.80;97.10
72883;DHT22;61017;37.812;-122.286;2023-06-14T04:10:53;16.80;97.10
72883;DHT22;61017;37.812;-122.286;2023-06-14T04:12:25;16.80;97.10
72883;DHT22;61017;37.812;-122.286;2023-06-14T04:13:57;16.80;97.10
72883;DHT22;61017;37.812;-122.286;2023-06-14T04:15:29;16.80;97.10
72883;DHT22;61017;37.812;-122.286;2023-06-14T04:17:02;16.80;97.10
72883;DHT22;61017;37.812;-122.286;2023-06-14T04:18:33;16.80;97.10
72883;DHT22;61017;37.812;-122.286;2023-06-14T04:20:05;16.80;97.10
72883;DHT22;61017;37.812;-122.286;2023-06-14T04:21:37;16.80;97.00
72883;DHT22;61017;37.812;-122.286;2023-06-14T04:23:13;16.80;97.10
72883;DHT22;61017;37.812;-122.286;2023-06-14T04:24:45;16.80;97.00
72883;DHT22;61017;37.812;-122.286;2023-06-14T04:26:19;16.80;97.00
72883;DHT22;61017;37.812;-122.286;2023-06-14T04:28:14;16.80;97.10
72883;DHT22;61017;37.812;-122.286;2023-06-14T04:29:49;16.80;97.00
72883;DHT22;61017;37.812;-122.286;2023-06-14T04:31:28;16.80;97.00
72883;DHT22;61017;37.812;-122.286;2023-06-14T04:33:17;16.80;97.40
72883;DHT22;61017;37.812;-122.286;2023-06-14T04:34:56;16.80;97.10
72883;DHT22;61017;37.812;-122.286;2023-06-14T04:36:27;16.80;97.00
72883;DHT22;61017;37.812;-122.286;2023-06-14T04:37:59;16.80;97.00
72883;DHT22;61017;37.812;-122.286;2023-06-14T04:39:31;16.80;97.00
72883;DHT22;61017;37.812;-122.286;2023-06-14T04:41:02;16.80;97.00
72883;DHT22;61017;37.812;-122.286;2023-06-14T04:42:34;16.80;97.00
72883;DHT22;61017;37.812;-122.286;2023-06-14T04:44:06;16.80;97.00
72883;DHT22;61017;37.812;-122.286;2023-06-14T04:45:37;16.80;97.00
72883;DHT22;61017;37.812;-122.286;2023-06-14T04:47:09;16.80;97.40
72883;DHT22;61017;37.812;-122.286;2023-06-14T04:48:41;16.80;97.00
72883;DHT22;61017;37.812;-122.286;2023-06-14T04:50:12;16.80;97.00
72883;DHT22;61017;37.812;-122.286;2023-06-14T04:51:47;16.80;97.00
72883;DHT22;61017;37.812;-122.286;2023-06-14T04:53:20;16.80;97.00
72883;DHT22;61017;37.812;-122.286;2023-06-14T04:54:52;16.80;97.00
72883;DHT22;61017;37.812;-122.286;2023-06-14T04:56:26;16.80;97.00
72883;DHT22;61017;37.812;-122.286;2023-06-14T04:57:57;16.80;97.00
72883;DHT22;61017;37.812;-122.286;2023-06-14T04:59:32;16.80;97.00
72883;DHT22;61017;37.812;-122.286;2023-06-14T05:01:03;16.80;96.90
72883;DHT22;61017;37.812;-122.286;2023-06-14T05:02:35;16.80;96.90
72883;DHT22;61017;37.812;-122.286;2023-06-14T05:04:07;16.80;96.90
72883;DHT22;61017;37.812;-122.286;2023-06-14T05:05:40;16.80;97.00
72883;DHT22;61017;37.812;-122.286;2023-06-14T05:07:12;16.80;96.90
72883;DHT22;61017;37.812;-122.286;2023-06-14T05:08:52;16.80;97.00
72883;DHT22;61017;37.812;-122.286;2023-06-14T05:10:26;16.80;97.00
72883;DHT22;61017;37.812;-122.286;2023-06-14T05:11:57;16.80;96.90
72883;DHT22;61017;37.812;-122.286;2023-06-14T05:13:29;16.80;96.90
72883;DHT22;61017;37.812;-122.286;2023-06-14T05:15:01;16.80;96.90
72883;DHT22;61017;37.812;-122.286;2023-06-14T05:16:34;16.80;96.90
72883;DHT22;61017;37.812;-122.286;2023-06-14T05:18:06;16.80;96.90
72883;DHT22;61017;37.812;-122.286;2023-06-14T05:19:37;16.80;96.90
72883;DHT22;61017;37.812;-122.286;2023-06-14T05:21:09;16.80;96.90
72883;DHT22;61017;37.812;-122.286;2023-06-14T05:22:41;16.80;96.90
72883;DHT22;61017;37.812;-122.286;2023-06-14T05:24:13;16.80;96.90
72883;DHT22;61017;37.812;-122.286;2023-06-14T05:25:45;16.80;96.90
72883;DHT22;61017;37.812;-122.286;2023-06-14T05:27:17;16.80;96.90
72883;DHT22;61017;37.812;-122.286;2023-06-14T05:28:49;16.80;96.90
72883;DHT22;61017;37.812;-122.286;2023-06-14T05:30:20;16.80;96.90
72883;DHT22;61017;37.812;-122.286;2023-06-14T05:31:52;16.80;96.90
72883;DHT22;61017;37.812;-122.286;2023-06-14T05:33:24;16.80;96.90
72883;DHT22;61017;37.812;-122.286;2023-06-14T05:34:55;16.80;96.90
72883;DHT22;61017;37.812;-122.286;2023-06-14T05:36:27;16.80;96.90
72883;DHT22;61017;37.812;-122.286;2023-06-14T05:37:58;16.80;96.90
72883;DHT22;61017;37.812;-122.286;2023-06-14T05:39:30;16.80;96.90
72883;DHT22;61017;37.812;-122.286;2023-06-14T05:41:01;16.80;96.90
72883;DHT22;61017;37.812;-122.286;2023-06-14T05:42:33;16.80;96.90
72883;DHT22;61017;37.812;-122.286;2023-06-14T05:44:05;16.80;96.90
72883;DHT22;61017;37.812;-122.286;2023-06-14T05:45:36;16.80;96.80
72883;DHT22;61017;37.812;-122.286;2023-06-14T05:47:08;16.80;96.80
72883;DHT22;61017;37.812;-122.286;2023-06-14T05:48:39;16.80;96.80
72883;DHT22;61017;37.812;-122.286;2023-06-14T05:50:11;16.80;96.80
72883;DHT22;61017;37.812;-122.286;2023-06-14T05:51:42;16.80;96.80
72883;DHT22;61017;37.812;-122.286;2023-06-14T05:53:14;16.80;96.80
72883;DHT22;61017;37.812;-122.286;2023-06-14T05:54:46;16.80;96.80
72883;DHT22;61017;37.812;-122.286;2023-06-14T05:56:18;16.80;96.80
72883;DHT22;61017;37.812;-122.286;2023-06-14T05:57:49;16.80;96.80
72883;DHT22;61017;37.812;-122.286;2023-06-14T05:59:21;16.80;96.80
72883;DHT22;61017;37.812;-122.286;2023-06-14T06:00:53;16.80;96.80
72883;DHT22;61017;37.812;-122.286;2023-06-14T06:02:24;16.80;96.90
72883;DHT22;61017;37.812;-122.286;2023-06-14T06:03:56;16.80;96.80
72883;DHT22;61017;37.812;-122.286;2023-06-14T06:05:27;16.80;96.80
72883;DHT22;61017;37.812;-122.286;2023-06-14T06:06:59;16.80;96.80
72883;DHT22;61017;37.812;-122.286;2023-06-14T06:08:30;16.80;96.80
72883;DHT22;61017;37.812;-122.286;2023-06-14T06:10:02;16.80;96.80
72883;DHT22;61017;37.812;-122.286;2023-06-14T06:11:33;16.80;96.80
72883;DHT22;61017;37.812;-122.286;2023-06-14T06:13:05;16.80;96.80
72883;DHT22;61017;37.812;-122.286;2023-06-14T06:14:36;16.80;96.80
72883;DHT22;61017;37.812;-122.286;2023-06-14T06:16:08;16.80;96.80
72883;DHT22;61017;37.812;-122.286;2023-06-14T06:17:40;16.80;97.10
72883;DHT22;61017;37.812;-122.286;2023-06-14T06:19:11;16.80;96.80
72883;DHT22;61017;37.812;-122.286;2023-06-14T06:20:43;16.80;96.80
72883;DHT22;61017;37.812;-122.286;2023-06-14T06:22:14;16.80;96.80
72883;DHT22;61017;37.812;-122.286;2023-06-14T06:23:46;16.80;96.80
72883;DHT22;61017;37.812;-122.286;2023-06-14T06:25:17;16.80;96.80
72883;DHT22;61017;37.812;-122.286;2023-06-14T06:26:49;16.80;96.80
72883;DHT22;61017;37.812;-122.286;2023-06-14T06:28:21;16.80;96.80
72883;DHT22;61017;37.812;-122.286;2023-06-14T06:29:52;16.80;96.70
72883;DHT22;61017;37.812;-122.286;2023-06-14T06:31:24;16.80;96.80
72883;DHT22;61017;37.812;-122.286;2023-06-14T06:32:56;16.70;96.70
72883;DHT22;61017;37.812;-122.286;2023-06-14T06:34:27;16.80;96.70
72883;DHT22;61017;37.812;-122.286;2023-06-14T06:35:59;16.80;96.70
72883;DHT22;61017;37.812;-122.286;2023-06-14T06:37:30;16.80;96.60
72883;DHT22;61017;37.812;-122.286;2023-06-14T06:39:02;16.80;96.60
72883;DHT22;61017;37.812;-122.286;2023-06-14T06:40:33;16.80;96.60
72883;DHT22;61017;37.812;-122.286;2023-06-14T06:42:05;16.80;96.60
72883;DHT22;61017;37.812;-122.286;2023-06-14T06:43:37;16.80;96.60
72883;DHT22;61017;37.812;-122.286;2023-06-14T06:45:09;16.80;96.60
72883;DHT22;61017;37.812;-122.286;2023-06-14T06:46:40;16.80;96.60
72883;DHT22;61017;37.812;-122.286;2023-06-14T06:48:12;16.80;96.60
72883;DHT22;61017;37.812;-122.286;2023-06-14T06:49:43;16.70;96.50
72883;DHT22;61017;37.812;-122.286;2023-06-14T06:51:15;16.80;96.60
72883;DHT22;61017;37.812;-122.286;2023-06-14T06:52:46;16.80;96.60
72883;DHT22;61017;37.812;-122.286;2023-06-14T06:54:18;16.80;96.60
72883;DHT22;61017;37.812;-122.286;2023-06-14T06:55:50;16.80;96.60
72883;DHT22;61017;37.812;-122.286;2023-06-14T06:57:22;16.80;96.60
72883;DHT22;61017;37.812;-122.286;2023-06-14T06:58:53;16.80;96.60
72883;DHT22;61017;37.812;-122.286;2023-06-14T07:00:25;16.80;96.60
72883;DHT22;61017;37.812;-122.286;2023-06-14T07:01:56;16.80;97.00
72883;DHT22;61017;37.812;-122.286;2023-06-14T07:03:28;16.80;96.60
72883;DHT22;61017;37.812;-122.286;2023-06-14T07:05:11;16.70;96.60
72883;DHT22;61017;37.812;-122.286;2023-06-14T07:06:43;16.70;96.60
72883;DHT22;61017;37.812;-122.286;2023-06-14T07:08:15;16.70;96.50
72883;DHT22;61017;37.812;-122.286;2023-06-14T07:09:47;16.80;96.60
72883;DHT22;61017;37.812;-122.286;2023-06-14T07:11:18;16.70;96.50
72883;DHT22;61017;37.812;-122.286;2023-06-14T07:12:50;16.70;96.50
72883;DHT22;61017;37.812;-122.286;2023-06-14T07:14:22;16.70;96.60
72883;DHT22;61017;37.812;-122.286;2023-06-14T07:16:00;16.70;96.60
72883;DHT22;61017;37.812;-122.286;2023-06-14T07:17:31;16.70;96.50
72883;DHT22;61017;37.812;-122.286;2023-06-14T07:19:03;16.70;96.50
72883;DHT22;61017;37.812;-122.286;2023-06-14T07:20:38;16.80;96.60
72883;DHT22;61017;37.812;-122.286;2023-06-14T07:22:10;16.70;96.50
72883;DHT22;61017;37.812;-122.286;2023-06-14T07:23:41;16.70;96.50
72883;DHT22;61017;37.812;-122.286;2023-06-14T07:25:13;16.70;96.50
72883;DHT22;61017;37.812;-122.286;2023-06-14T07:26:45;16.70;96.50
72883;DHT22;61017;37.812;-122.286;2023-06-14T07:28:19;16.80;96.50
72883;DHT22;61017;37.812;-122.286;2023-06-14T07:29:51;16.70;96.50
72883;DHT22;61017;37.812;-122.286;2023-06-14T07:31:22;16.70;96.50
72883;DHT22;61017;37.812;-122.286;2023-06-14T07:32:55;16.70;96.60
72883;DHT22;61017;37.812;-122.286;2023-06-14T07:34:27;16.80;96.60
72883;DHT22;61017;37.812;-122.286;2023-06-14T07:35:58;16.70;96.50
72883;DHT22;61017;37.812;-122.286;2023-06-14T07:37:30;16.70;96.50
72883;DHT22;61017;37.812;-122.286;2023-06-14T07:39:01;16.70;96.50
72883;DHT22;61017;37.812;-122.286;2023-06-14T07:40:33;16.70;96.50
72883;DHT22;61017;37.812;-122.286;2023-06-14T07:42:05;16.80;96.60
72883;DHT22;61017;37.812;-122.286;2023-06-14T07:43:36;16.70;96.50
72883;DHT22;61017;37.812;-122.286;2023-06-14T07:45:09;16.70;96.50
72883;DHT22;61017;37.812;-122.286;2023-06-14T07:46:40;16.70;96.50
72883;DHT22;61017;37.812;-122.286;2023-06-14T07:48:12;16.70;96.50
72883;DHT22;61017;37.812;-122.286;2023-06-14T07:49:43;16.70;96.50
72883;DHT22;61017;37.812;-122.286;2023-06-14T07:51:15;16.70;96.50
72883;DHT22;61017;37.812;-122.286;2023-06-14T07:52:46;16.70;96.50
72883;DHT22;61017;37.812;-122.286;2023-06-14T07:54:18;16.70;96.50
72883;DHT22;61017;37.812;-122.286;2023-06-14T07:55:50;16.70;96.50
72883;DHT22;61017;37.812;-122.286;2023-06-14T07:57:22;16.70;96.40
72883;DHT22;61017;37.812;-122.286;2023-06-14T07:58:53;16.70;96.40
72883;DHT22;61017;37.812;-122.286;2023-06-14T08:00:25;16.70;96.40
72883;DHT22;61017;37.812;-122.286;2023-06-14T08:01:56;16.80;96.80
72883;DHT22;61017;37.812;-122.286;2023-06-14T08:03:28;16.70;96.50
72883;DHT22;61017;37.812;-122.286;2023-06-14T08:04:59;16.70;96.50
72883;DHT22;61017;37.812;-122.286;2023-06-14T08:06:31;16.70;96.50
72883;DHT22;61017;37.812;-122.286;2023-06-14T08:08:07;16.80;96.60
72883;DHT22;61017;37.812;-122.286;2023-06-14T08:09:38;16.70;96.50
72883;DHT22;61017;37.812;-122.286;2023-06-14T08:11:10;16.70;96.50
72883;DHT22;61017;37.812;-122.286;2023-06-14T08:12:41;16.80;96.50
72883;DHT22;61017;37.812;-122.286;2023-06-14T08:14:13;16.70;96.40
72883;DHT22;61017;37.812;-122.286;2023-06-14T08:15:45;16.80;96.40
72883;DHT22;61017;37.812;-122.286;2023-06-14T08:17:17;16.70;96.30
72883;DHT22;61017;37.812;-122.286;2023-06-14T08:18:49;16.70;96.70
72883;DHT22;61017;37.812;-122.286;2023-06-14T08:20:21;16.70;96.40
72883;DHT22;61017;37.812;-122.286;2023-06-14T08:21:52;16.70;96.40
72883;DHT22;61017;37.812;-122.286;2023-06-14T08:23:24;16.70;96.40
72883;DHT22;61017;37.812;-122.286;2023-06-14T08:24:56;16.70;96.40
72883;DHT22;61017;37.812;-122.286;2023-06-14T08:26:27;16.70;96.30
72883;DHT22;61017;37.812;-122.286;2023-06-14T08:27:59;16.70;96.30
72883;DHT22;61017;37.812;-122.286;2023-06-14T08:29:32;16.70;96.40
72883;DHT22;61017;37.812;-122.286;2023-06-14T08:31:03;16.70;96.40
72883;DHT22;61017;37.812;-122.286;2023-06-14T08:32:35;16.70;96.30
72883;DHT22;61017;37.812;-122.286;2023-06-14T08:34:06;16.80;96.40
72883;DHT22;61017;37.812;-122.286;2023-06-14T08:35:38;16.80;96.40
72883;DHT22;61017;37.812;-122.286;2023-06-14T08:37:10;16.70;96.40
72883;DHT22;61017;37.812;-122.286;2023-06-14T08:38:41;16.80;96.40
72883;DHT22;61017;37.812;-122.286;2023-06-14T08:40:21;16.80;96.50
72883;DHT22;61017;37.812;-122.286;2023-06-14T08:41:53;16.70;96.30
72883;DHT22;61017;37.812;-122.286;2023-06-14T08:43:26;16.80;96.30
72883;DHT22;61017;37.812;-122.286;2023-06-14T08:44:57;16.80;96.30
72883;DHT22;61017;37.812;-122.286;2023-06-14T08:46:32;16.70;96.30
72883;DHT22;61017;37.812;-122.286;2023-06-14T08:48:07;16.70;96.30
72883;DHT22;61017;37.812;-122.286;2023-06-14T08:49:41;16.70;96.40
72883;DHT22;61017;37.812;-122.286;2023-06-14T08:51:19;16.70;96.30
72883;DHT22;61017;37.812;-122.286;2023-06-14T08:52:54;16.70;96.40
72883;DHT22;61017;37.812;-122.286;2023-06-14T08:54:29;16.70;96.40
72883;DHT22;61017;37.812;-122.286;2023-06-14T08:56:03;16.70;96.30
72883;DHT22;61017;37.812;-122.286;2023-06-14T08:57:37;16.80;96.30
72883;DHT22;61017;37.812;-122.286;2023-06-14T08:59:10;16.70;96.30
72883;DHT22;61017;37.812;-122.286;2023-06-14T09:00:42;16.80;96.40
72883;DHT22;61017;37.812;-122.286;2023-06-14T09:02:14;16.80;96.30
72883;DHT22;61017;37.812;-122.286;2023-06-14T09:03:46;16.70;96.20
72883;DHT22;61017;37.812;-122.286;2023-06-14T09:05:17;16.70;96.20
72883;DHT22;61017;37.812;-122.286;2023-06-14T09:06:49;16.70;96.10
72883;DHT22;61017;37.812;-122.286;2023-06-14T09:08:21;16.70;96.10
72883;DHT22;61017;37.812;-122.286;2023-06-14T09:10:12;16.70;96.10
72883;DHT22;61017;37.812;-122.286;2023-06-14T09:11:44;16.70;96.20
72883;DHT22;61017;37.812;-122.286;2023-06-14T09:13:16;16.70;96.20
72883;DHT22;61017;37.812;-122.286;2023-06-14T09:14:49;16.70;96.20
72883;DHT22;61017;37.812;-122.286;2023-06-14T09:16:21;16.70;96.20
72883;DHT22;61017;37.812;-122.286;2023-06-14T09:17:53;16.70;96.30
72883;DHT22;61017;37.812;-122.286;2023-06-14T09:19:25;16.70;96.30
72883;DHT22;61017;37.812;-122.286;2023-06-14T09:20:58;16.70;96.20